Time;durP1;ratioP1;P1;durP2;ratioP2;P2;SDS_P1;SDS_P2;PMS_P1;PMS_P2;Temp;Humidity;BMP_temperature;BMP_pressure;BME280_temperature;BME280_humidity;BME280_pressure;Samples;Min_cycle;Max_cycle;Signal;HPM_P1;HPM_P2
2021/09/26 00:02:02;;;;;;;1111.00;998.55;;;;;;;;;;5004334;28;20026;-75
2021/09/26 00:04:28;;;;;;;1110.20;998.10;;;;;;;;;;5006224;28;20033;-76
2021/09/26 00:06:54;;;;;;;1102.30;993.00;;;;;;;;;;5007686;28;20493;-75
2021/09/26 00:09:20;;;;;;;1104.47;994.85;;;;;;;;;;5006132;28;20088;-74
2021/09/26 00:11:46;;;;;;;1102.47;993.10;;;;;;;;;;5006586;28;20036;-74
2021/09/26 00:14:12;;;;;;;1117.03;999.90;;;;;;;;;;5006182;28;20026;-76
2021/09/26 00:16:38;;;;;;;1113.60;999.13;;;;;;;;;;5004475;28;20030;-75
2021/09/26 00:19:04;;;;;;;1105.55;994.65;;;;;;;;;;5003411;28;20564;-76
2021/09/26 00:21:30;;;;;;;1106.95;995.85;;;;;;;;;;4999021;28;20030;-75
2021/09/26 00:23:57;;;;;;;1103.55;993.53;;;;;;;;;;5006396;28;20363;-75
2021/09/26 00:26:23;;;;;;;1102.00;992.50;;;;;;;;;;5006339;28;20054;-76
2021/09/26 00:28:49;;;;;;;1093.63;984.67;;;;;;;;;;5007448;28;20034;-75
2021/09/26 00:31:15;;;;;;;1096.03;987.15;;;;;;;;;;5009360;28;20064;-75
2021/09/26 00:33:41;;;;;;;1103.68;994.40;;;;;;;;;;5006260;28;20034;-74
2021/09/26 00:36:07;;;;;;;1101.35;992.10;;;;;;;;;;5007382;28;20026;-76
2021/09/26 00:38:33;;;;;;;1097.32;988.42;;;;;;;;;;5007820;28;20026;-75
2021/09/26 00:40:59;;;;;;;1096.03;987.38;;;;;;;;;;5006277;28;20338;-74
2021/09/26 00:43:25;;;;;;;1100.88;991.72;;;;;;;;;;5006799;28;20529;-74
2021/09/26 00:45:51;;;;;;;1099.90;990.90;;;;;;;;;;5006725;28;20125;-75
2021/09/26 00:48:17;;;;;;;1099.38;990.38;;;;;;;;;;5006986;28;20418;-75
2021/09/26 00:50:43;;;;;;;1092.68;984.28;;;;;;;;;;5005819;28;20331;-75
2021/09/26 00:53:09;;;;;;;1093.45;984.17;;;;;;;;;;5005553;28;20127;-76
2021/09/26 00:55:36;;;;;;;1089.47;981.00;;;;;;;;;;5006986;28;20368;-75
2021/09/26 00:58:02;;;;;;;1090.60;982.13;;;;;;;;;;5005517;28;20037;-75
2021/09/26 01:00:29;;;;;;;1086.45;978.15;;;;;;;;;;5006835;28;20030;-76
2021/09/26 01:02:55;;;;;;;1084.43;976.22;;;;;;;;;;5004842;28;20083;-75
2021/09/26 01:05:22;;;;;;;1079.82;971.83;;;;;;;;;;5006014;28;20025;-76
2021/09/26 01:07:49;;;;;;;1079.47;971.25;;;;;;;;;;5009867;28;20065;-77
2021/09/26 01:10:33;;;;;;;1076.97;969.08;;;;;;;;;;5009445;28;20521;-76
2021/09/26 01:13:08;;;;;;;1075.28;967.33;;;;;;;;;;5019203;28;20030;-75
2021/09/26 01:15:43;;;;;;;1072.75;965.08;;;;;;;;;;5015085;28;20029;-76
2021/09/26 01:18:26;;;;;;;1075.88;967.72;;;;;;;;;;5008457;28;20027;-75
2021/09/26 01:20:53;;;;;;;1075.57;967.53;;;;;;;;;;5012647;28;20493;-77
2021/09/26 01:23:22;;;;;;;1077.30;969.35;;;;;;;;;;5009202;28;20176;-76
2021/09/26 01:25:58;;;;;;;1078.50;970.35;;;;;;;;;;5010448;28;20429;-74
2021/09/26 01:28:36;;;;;;;1073.40;965.15;;;;;;;;;;5008763;28;20063;-75
2021/09/26 01:31:06;;;;;;;1077.45;969.63;;;;;;;;;;5010253;28;20026;-76
2021/09/26 01:33:39;;;;;;;1072.20;964.45;;;;;;;;;;5004456;28;20031;-76
2021/09/26 01:36:19;;;;;;;1068.35;960.75;;;;;;;;;;4993613;28;20064;-76
2021/09/26 01:39:04;;;;;;;1065.28;958.00;;;;;;;;;;5021276;28;20437;-76
2021/09/26 01:41:41;;;;;;;1060.15;952.55;;;;;;;;;;5004289;28;20026;-77
2021/09/26 01:44:10;;;;;;;1066.05;958.65;;;;;;;;;;5020374;28;20032;-76
2021/09/26 01:46:37;;;;;;;1071.82;964.20;;;;;;;;;;5010695;28;20026;-75
2021/09/26 01:49:10;;;;;;;1071.65;963.88;;;;;;;;;;5003387;28;20032;-75
2021/09/26 01:51:37;;;;;;;1070.75;962.75;;;;;;;;;;5008882;28;20014;-76
2021/09/26 01:54:04;;;;;;;1073.13;965.08;;;;;;;;;;5010088;28;20513;-76
2021/09/26 01:56:30;;;;;;;1065.88;958.42;;;;;;;;;;5010149;28;20449;-76
2021/09/26 01:58:57;;;;;;;1071.18;963.30;;;;;;;;;;5009859;28;20033;-75
2021/09/26 02:01:23;;;;;;;1067.15;959.25;;;;;;;;;;5006510;28;20030;-75
2021/09/26 02:03:49;;;;;;;1071.03;962.92;;;;;;;;;;5006715;28;20029;-76
2021/09/26 02:06:16;;;;;;;1068.97;960.95;;;;;;;;;;5010191;28;20444;-76
2021/09/26 02:08:43;;;;;;;1066.15;958.80;;;;;;;;;;5008096;28;20030;-76
2021/09/26 02:11:10;;;;;;;1065.10;957.80;;;;;;;;;;5013052;28;20051;-75
2021/09/26 02:13:37;;;;;;;1060.68;953.40;;;;;;;;;;5028683;28;20029;-76
2021/09/26 02:16:03;;;;;;;1062.35;954.85;;;;;;;;;;5028985;28;20071;-77
2021/09/26 02:18:31;;;;;;;1064.75;957.08;;;;;;;;;;5009381;28;20030;-77
2021/09/26 02:20:57;;;;;;;1059.80;952.28;;;;;;;;;;5008837;28;20048;-76
2021/09/26 02:23:24;;;;;;;1061.03;953.53;;;;;;;;;;5008676;28;20029;-77
2021/09/26 02:25:51;;;;;;;1060.57;953.08;;;;;;;;;;5008746;28;20037;-76
2021/09/26 02:28:18;;;;;;;1068.70;960.90;;;;;;;;;;5010111;28;20030;-77
2021/09/26 02:30:44;;;;;;;1062.13;954.78;;;;;;;;;;5009930;28;20481;-75
2021/09/26 02:33:10;;;;;;;1061.57;954.08;;;;;;;;;;5005708;28;20044;-76
2021/09/26 02:35:36;;;;;;;1069.97;962.17;;;;;;;;;;5014203;28;20030;-76
2021/09/26 02:38:02;;;;;;;1071.50;963.75;;;;;;;;;;5008506;28;20485;-76
2021/09/26 02:40:29;;;;;;;1063.43;956.00;;;;;;;;;;5011370;28;20026;-76
2021/09/26 02:43:24;;;;;;;1063.20;956.17;;;;;;;;;;5009183;28;20034;-76
2021/09/26 02:46:04;;;;;;;1050.50;943.80;;;;;;;;;;4996564;28;20045;-77
2021/09/26 02:48:30;;;;;;;1053.40;946.35;;;;;;;;;;5009035;28;20084;-77
2021/09/26 02:50:56;;;;;;;1055.63;948.53;;;;;;;;;;5007699;28;20375;-76
2021/09/26 02:53:24;;;;;;;1057.68;950.45;;;;;;;;;;5007665;28;20139;-75
2021/09/26 02:55:51;;;;;;;1055.03;947.80;;;;;;;;;;5007331;28;20133;-77
2021/09/26 02:58:18;;;;;;;1055.45;948.53;;;;;;;;;;5007464;28;20504;-75
2021/09/26 03:00:45;;;;;;;1051.82;944.75;;;;;;;;;;5007685;28;20023;-74
2021/09/26 03:03:18;;;;;;;1048.50;941.28;;;;;;;;;;5016327;28;20583;-77
2021/09/26 03:05:44;;;;;;;1047.53;940.67;;;;;;;;;;5007208;28;20426;-76
2021/09/26 03:08:11;;;;;;;1054.10;946.65;;;;;;;;;;5008802;28;20037;-77
2021/09/26 03:10:39;;;;;;;1047.80;940.80;;;;;;;;;;5007253;28;20036;-75
2021/09/26 03:13:05;;;;;;;1051.97;944.70;;;;;;;;;;5007434;28;20026;-76
2021/09/26 03:15:31;;;;;;;1047.50;940.50;;;;;;;;;;5008733;28;20044;-76
2021/09/26 03:17:57;;;;;;;1047.03;940.00;;;;;;;;;;5007839;28;20032;-77
2021/09/26 03:20:23;;;;;;;1047.00;940.10;;;;;;;;;;5022365;28;20018;-77
2021/09/26 03:22:50;;;;;;;1051.55;944.38;;;;;;;;;;5028673;28;20037;-76
2021/09/26 03:25:16;;;;;;;1055.38;947.78;;;;;;;;;;5022121;28;20029;-76
2021/09/26 03:27:43;;;;;;;1058.47;950.35;;;;;;;;;;5007917;28;20049;-75
2021/09/26 03:30:09;;;;;;;1055.13;947.65;;;;;;;;;;5006664;28;20553;-74
2021/09/26 03:32:35;;;;;;;1061.72;953.97;;;;;;;;;;5005189;28;20513;-74
2021/09/26 03:35:01;;;;;;;1052.53;945.13;;;;;;;;;;5006834;28;20026;-77
2021/09/26 03:37:28;;;;;;;1047.75;940.40;;;;;;;;;;5008491;28;20022;-74
2021/09/26 03:39:54;;;;;;;1061.30;953.53;;;;;;;;;;5007056;28;20409;-73
2021/09/26 03:42:20;;;;;;;1057.15;949.45;;;;;;;;;;5006687;28;20087;-74
2021/09/26 03:44:46;;;;;;;1052.30;944.97;;;;;;;;;;5007467;28;20104;-73
2021/09/26 03:47:12;;;;;;;1054.30;946.70;;;;;;;;;;5007327;28;20121;-75
2021/09/26 03:49:38;;;;;;;1060.68;952.88;;;;;;;;;;5006375;28;20033;-74
2021/09/26 03:52:05;;;;;;;1053.43;945.88;;;;;;;;;;5006192;28;20030;-74
2021/09/26 03:54:31;;;;;;;1048.25;941.08;;;;;;;;;;5018415;28;20042;-75
2021/09/26 03:56:57;;;;;;;1047.93;940.30;;;;;;;;;;5006281;28;20121;-74
2021/09/26 03:59:23;;;;;;;1048.00;940.42;;;;;;;;;;5006599;28;20047;-75
2021/09/26 04:01:50;;;;;;;1040.45;933.42;;;;;;;;;;5005680;28;20034;-75
2021/09/26 04:04:16;;;;;;;1050.72;943.03;;;;;;;;;;5008207;28;20482;-75
2021/09/26 04:06:42;;;;;;;1048.13;940.63;;;;;;;;;;5006398;28;20030;-75
2021/09/26 04:09:08;;;;;;;1045.40;938.10;;;;;;;;;;5006406;28;20032;-75
2021/09/26 04:11:36;;;;;;;1044.25;937.08;;;;;;;;;;5008071;28;20478;-75
2021/09/26 04:14:02;;;;;;;1045.55;938.40;;;;;;;;;;5006480;28;20025;-75
2021/09/26 04:16:28;;;;;;;1050.22;942.42;;;;;;;;;;5007563;28;20026;-74
2021/09/26 04:18:54;;;;;;;1046.60;939.47;;;;;;;;;;5010580;28;20037;-74
2021/09/26 04:21:20;;;;;;;1042.78;935.80;;;;;;;;;;5011427;28;20034;-75
2021/09/26 04:23:47;;;;;;;1055.38;947.75;;;;;;;;;;5010498;28;20036;-74
2021/09/26 04:26:13;;;;;;;1055.40;947.40;;;;;;;;;;5011356;28;20034;-75
2021/09/26 04:28:39;;;;;;;1052.68;944.92;;;;;;;;;;5010210;28;20049;-74
2021/09/26 04:31:05;;;;;;;1054.75;946.85;;;;;;;;;;5009123;28;20030;-75
2021/09/26 04:33:32;;;;;;;1051.10;943.70;;;;;;;;;;5009150;28;20382;-74
2021/09/26 04:35:58;;;;;;;1052.47;944.55;;;;;;;;;;5008322;28;20026;-74
2021/09/26 04:38:24;;;;;;;1051.38;943.67;;;;;;;;;;5006112;28;20037;-75
2021/09/26 04:40:50;;;;;;;1056.22;948.08;;;;;;;;;;5007253;28;20034;-75
2021/09/26 04:43:16;;;;;;;1058.95;950.58;;;;;;;;;;5005288;28;20038;-74
2021/09/26 04:45:42;;;;;;;1047.13;939.42;;;;;;;;;;5008012;28;20370;-74
2021/09/26 04:48:08;;;;;;;1034.53;927.65;;;;;;;;;;5006648;28;20030;-75
2021/09/26 04:50:34;;;;;;;1033.00;926.25;;;;;;;;;;5005915;28;20037;-75
2021/09/26 04:53:00;;;;;;;1030.20;923.53;;;;;;;;;;5008404;28;20034;-74
2021/09/26 04:55:27;;;;;;;1032.22;925.60;;;;;;;;;;5006646;28;20185;-75
2021/09/26 04:57:53;;;;;;;1027.45;921.08;;;;;;;;;;5010099;28;20040;-74
2021/09/26 05:00:19;;;;;;;1035.70;928.80;;;;;;;;;;5010448;28;20038;-74
2021/09/26 05:02:45;;;;;;;1031.90;925.15;;;;;;;;;;5009921;28;20470;-74
2021/09/26 05:05:11;;;;;;;1034.70;927.90;;;;;;;;;;5010448;28;20033;-74
2021/09/26 05:07:37;;;;;;;1037.65;930.47;;;;;;;;;;5014052;28;20017;-75
2021/09/26 05:10:04;;;;;;;1041.60;934.42;;;;;;;;;;5011531;28;20037;-76
2021/09/26 05:12:30;;;;;;;1038.50;931.30;;;;;;;;;;5008314;28;20021;-74
2021/09/26 05:15:01;;;;;;;1040.47;933.20;;;;;;;;;;5009062;28;20025;-75
2021/09/26 05:17:27;;;;;;;1039.00;931.88;;;;;;;;;;5010147;28;20026;-75
2021/09/26 05:19:53;;;;;;;1039.20;932.17;;;;;;;;;;5012692;28;20022;-75
2021/09/26 05:22:20;;;;;;;1041.40;934.38;;;;;;;;;;5003574;28;20406;-75
2021/09/26 05:24:46;;;;;;;1043.28;936.10;;;;;;;;;;5009400;28;20037;-75
2021/09/26 05:27:12;;;;;;;1046.30;939.20;;;;;;;;;;5008702;28;20441;-74
2021/09/26 05:29:40;;;;;;;1046.40;939.25;;;;;;;;;;5009104;28;20474;-74
2021/09/26 05:32:06;;;;;;;1047.57;940.38;;;;;;;;;;5008137;28;20034;-75
2021/09/26 05:34:32;;;;;;;1047.60;940.42;;;;;;;;;;5008220;28;20026;-74
2021/09/26 05:36:58;;;;;;;1041.25;934.38;;;;;;;;;;5013939;28;20026;-75
2021/09/26 05:39:25;;;;;;;1048.85;941.83;;;;;;;;;;5008553;28;20053;-75
2021/09/26 05:41:54;;;;;;;1046.20;938.97;;;;;;;;;;5008823;28;20018;-74
2021/09/26 05:44:20;;;;;;;1045.15;938.20;;;;;;;;;;5008118;28;20038;-74
2021/09/26 05:46:46;;;;;;;1046.97;939.72;;;;;;;;;;5008812;28;20026;-75
2021/09/26 05:49:12;;;;;;;1047.00;939.90;;;;;;;;;;5008056;28;20080;-75
2021/09/26 05:51:38;;;;;;;1047.53;940.33;;;;;;;;;;5013428;28;20038;-74
2021/09/26 05:54:04;;;;;;;1053.38;945.95;;;;;;;;;;5007852;28;20053;-75
2021/09/26 05:56:30;;;;;;;1052.85;945.47;;;;;;;;;;5009137;28;20030;-74
2021/09/26 05:58:56;;;;;;;1046.95;939.85;;;;;;;;;;5008212;28;20530;-74
2021/09/26 06:01:22;;;;;;;1061.90;954.20;;;;;;;;;;5005632;28;20037;-74
2021/09/26 06:03:48;;;;;;;1055.53;947.90;;;;;;;;;;5008146;28;20116;-74
2021/09/26 06:06:14;;;;;;;1061.97;954.45;;;;;;;;;;5007026;28;20018;-74
2021/09/26 06:08:40;;;;;;;1065.68;957.75;;;;;;;;;;5009098;28;20390;-75
2021/09/26 06:11:06;;;;;;;1059.75;952.35;;;;;;;;;;5008104;28;20199;-74
2021/09/26 06:13:32;;;;;;;1068.15;959.97;;;;;;;;;;5007174;28;20033;-74
2021/09/26 06:16:01;;;;;;;1065.25;957.67;;;;;;;;;;5008255;28;20112;-74
2021/09/26 06:18:27;;;;;;;1069.55;961.55;;;;;;;;;;5005546;28;20478;-76
2021/09/26 06:20:53;;;;;;;1070.45;962.03;;;;;;;;;;5009604;28;20029;-75
2021/09/26 06:23:19;;;;;;;1069.15;961.15;;;;;;;;;;5010508;28;20037;-75
2021/09/26 06:25:45;;;;;;;1061.10;953.60;;;;;;;;;;5009551;28;20374;-75
2021/09/26 06:28:11;;;;;;;1074.95;966.47;;;;;;;;;;5013406;28;20109;-75
2021/09/26 06:30:37;;;;;;;1079.75;971.47;;;;;;;;;;5012940;28;20144;-76
2021/09/26 06:33:04;;;;;;;1079.35;971.28;;;;;;;;;;5005500;28;20033;-75
2021/09/26 06:35:30;;;;;;;1089.75;980.75;;;;;;;;;;5006440;28;20036;-75
2021/09/26 06:37:56;;;;;;;1082.57;974.22;;;;;;;;;;5008932;28;20075;-76
2021/09/26 06:40:22;;;;;;;1084.22;975.85;;;;;;;;;;5005381;28;20025;-75
2021/09/26 06:42:48;;;;;;;1093.03;984.05;;;;;;;;;;5011028;28;20340;-75
2021/09/26 06:45:14;;;;;;;1103.07;993.63;;;;;;;;;;5008758;28;20065;-75
2021/09/26 06:47:40;;;;;;;1100.30;990.92;;;;;;;;;;5005531;28;20037;-75
2021/09/26 06:50:07;;;;;;;1091.32;982.55;;;;;;;;;;5006947;28;20386;-76
2021/09/26 06:52:33;;;;;;;1089.43;981.10;;;;;;;;;;5006316;28;20041;-75
2021/09/26 06:54:59;;;;;;;1088.57;980.33;;;;;;;;;;5004266;28;20038;-76
2021/09/26 06:57:25;;;;;;;1089.20;980.97;;;;;;;;;;5007006;28;20030;-75
2021/09/26 06:59:55;;;;;;;1097.07;988.47;;;;;;;;;;5007263;28;20029;-75
2021/09/26 07:02:23;;;;;;;1088.38;980.35;;;;;;;;;;5006527;28;20030;-75
2021/09/26 07:04:55;;;;;;;1101.55;992.95;;;;;;;;;;5006453;28;20034;-76
2021/09/26 07:07:24;;;;;;;1099.60;991.03;;;;;;;;;;5007832;28;20034;-76
2021/09/26 07:09:51;;;;;;;1104.93;995.67;;;;;;;;;;5006688;28;20033;-75
2021/09/26 07:12:17;;;;;;;1105.97;996.28;;;;;;;;;;5008192;28;20026;-76
2021/09/26 07:14:44;;;;;;;1110.65;998.70;;;;;;;;;;5008371;28;20030;-75
2021/09/26 07:17:10;;;;;;;1112.45;999.13;;;;;;;;;;5007848;28;20038;-76
2021/09/26 07:19:36;;;;;;;1108.88;997.75;;;;;;;;;;5007053;28;20090;-76
2021/09/26 07:22:02;;;;;;;1114.32;999.47;;;;;;;;;;5006920;28;20057;-75
2021/09/26 07:24:28;;;;;;;1118.95;999.90;;;;;;;;;;5007942;28;20466;-74
2021/09/26 07:26:54;;;;;;;1122.43;999.90;;;;;;;;;;5008222;28;20029;-75
2021/09/26 07:29:20;;;;;;;1119.35;999.90;;;;;;;;;;5007891;28;20041;-75
2021/09/26 07:31:46;;;;;;;1122.97;999.90;;;;;;;;;;5002659;28;20042;-75
2021/09/26 07:34:12;;;;;;;1122.03;999.90;;;;;;;;;;5006319;28;20025;-75
2021/09/26 07:36:38;;;;;;;1120.82;999.90;;;;;;;;;;5007525;28;20025;-75
2021/09/26 07:39:05;;;;;;;1124.53;999.90;;;;;;;;;;5006683;28;20026;-74
2021/09/26 07:41:31;;;;;;;1120.63;999.90;;;;;;;;;;5006722;28;20037;-74
2021/09/26 07:43:58;;;;;;;1122.35;999.90;;;;;;;;;;5007692;28;20026;-74
2021/09/26 07:46:23;;;;;;;1124.30;999.90;;;;;;;;;;5007842;28;20417;-75
2021/09/26 07:48:50;;;;;;;1125.45;999.90;;;;;;;;;;5006216;28;20034;-74
2021/09/26 07:51:16;;;;;;;1125.45;999.90;;;;;;;;;;5008516;28;20037;-75
2021/09/26 07:53:42;;;;;;;1115.80;999.90;;;;;;;;;;5006099;28;20038;-75
2021/09/26 07:56:08;;;;;;;1128.32;999.90;;;;;;;;;;5005489;28;20418;-75
2021/09/26 07:58:34;;;;;;;1140.03;999.90;;;;;;;;;;5007258;28;20037;-74
2021/09/26 08:01:01;;;;;;;1136.45;999.90;;;;;;;;;;5005897;28;20433;-75
2021/09/26 08:03:27;;;;;;;1134.13;999.90;;;;;;;;;;5002826;28;20129;-74
2021/09/26 08:05:53;;;;;;;1137.55;999.90;;;;;;;;;;5008496;28;20034;-75
2021/09/26 08:08:19;;;;;;;1137.15;999.90;;;;;;;;;;5007722;28;20728;-75
2021/09/26 08:10:45;;;;;;;1135.15;999.90;;;;;;;;;;4997969;28;20125;-73
2021/09/26 08:13:11;;;;;;;1141.47;999.90;;;;;;;;;;5003888;28;20467;-74
2021/09/26 08:15:37;;;;;;;1135.45;999.90;;;;;;;;;;5002615;28;20022;-76
2021/09/26 08:18:03;;;;;;;1128.80;999.90;;;;;;;;;;4997947;28;20485;-75
2021/09/26 08:20:29;;;;;;;1131.68;999.90;;;;;;;;;;5002518;28;20542;-75
2021/09/26 08:22:55;;;;;;;1133.97;999.90;;;;;;;;;;5006601;28;20090;-76
2021/09/26 08:25:24;;;;;;;1137.78;999.90;;;;;;;;;;5006125;28;20549;-74
2021/09/26 08:27:51;;;;;;;1144.38;999.90;;;;;;;;;;5004979;28;20642;-75
2021/09/26 08:30:18;;;;;;;1145.13;999.90;;;;;;;;;;5005410;28;20401;-74
2021/09/26 08:32:45;;;;;;;1149.15;999.90;;;;;;;;;;5008262;28;20365;-74
2021/09/26 08:35:11;;;;;;;1146.43;999.90;;;;;;;;;;5009475;28;20029;-74
2021/09/26 08:37:38;;;;;;;1150.53;999.90;;;;;;;;;;5011584;28;20017;-75
2021/09/26 08:40:05;;;;;;;1146.68;999.90;;;;;;;;;;5008764;28;20084;-75
2021/09/26 08:42:31;;;;;;;1148.38;999.90;;;;;;;;;;5010516;28;20060;-75
2021/09/26 08:44:57;;;;;;;1145.57;999.90;;;;;;;;;;5011157;28;20033;-73
2021/09/26 08:47:23;;;;;;;1153.72;999.90;;;;;;;;;;5010618;28;20030;-76
2021/09/26 08:49:49;;;;;;;1158.43;999.90;;;;;;;;;;5009443;28;20037;-75
2021/09/26 08:52:15;;;;;;;1160.47;999.90;;;;;;;;;;5010995;28;20066;-74
2021/09/26 08:54:42;;;;;;;1170.40;999.90;;;;;;;;;;5009114;28;20042;-74
2021/09/26 08:57:08;;;;;;;1176.10;999.90;;;;;;;;;;5009345;28;20048;-74
2021/09/26 08:59:34;;;;;;;1177.57;999.90;;;;;;;;;;5007988;28;20502;-74
2021/09/26 09:02:04;;;;;;;1185.45;999.90;;;;;;;;;;5008203;28;20109;-74
2021/09/26 09:04:34;;;;;;;1184.90;999.90;;;;;;;;;;5009139;28;20049;-75
2021/09/26 09:07:00;;;;;;;;;;;;;;;;;;5009343;28;20038;-75
2021/09/26 09:09:26;;;;;;;1172.13;999.90;;;;;;;;;;5009346;28;20012;-74
2021/09/26 09:12:03;;;;;;;1192.40;999.90;;;;;;;;;;5010696;28;20033;-74
2021/09/26 09:14:48;;;;;;;1200.13;999.90;;;;;;;;;;5010262;28;20026;-74
2021/09/26 09:17:25;;;;;;;1202.30;999.90;;;;;;;;;;5009939;28;20030;-74
2021/09/26 09:20:10;;;;;;;1205.38;999.90;;;;;;;;;;5008289;28;20018;-74
2021/09/26 09:22:36;;;;;;;1203.80;999.90;;;;;;;;;;5010150;28;20026;-75
2021/09/26 09:25:02;;;;;;;1211.05;999.90;;;;;;;;;;5008501;28;20034;-75
2021/09/26 09:27:28;;;;;;;1214.85;999.90;;;;;;;;;;5009277;28;20418;-74
2021/09/26 09:29:54;;;;;;;1220.03;999.90;;;;;;;;;;5007506;28;20037;-74
2021/09/26 09:32:22;;;;;;;1220.50;999.90;;;;;;;;;;5006171;28;20046;-75
2021/09/26 09:34:49;;;;;;;1224.00;999.90;;;;;;;;;;5012667;28;20014;-75
2021/09/26 09:37:22;;;;;;;1232.40;999.90;;;;;;;;;;5010052;28;20033;-75
2021/09/26 09:40:06;;;;;;;1233.55;999.90;;;;;;;;;;5007466;28;20022;-75
2021/09/26 09:42:38;;;;;;;1238.10;999.90;;;;;;;;;;5007129;28;20066;-73
2021/09/26 09:45:16;;;;;;;1240.72;999.90;;;;;;;;;;5008372;28;20030;-74
2021/09/26 09:48:00;;;;;;;1235.78;999.90;;;;;;;;;;5008371;28;20041;-75
2021/09/26 09:50:40;;;;;;;1240.00;999.90;;;;;;;;;;5015167;28;20412;-74
2021/09/26 09:53:06;;;;;;;1244.43;999.90;;;;;;;;;;5007936;28;20022;-75
2021/09/26 09:55:32;;;;;;;1245.53;999.90;;;;;;;;;;5007948;28;20029;-75
2021/09/26 09:58:18;;;;;;;1246.35;999.90;;;;;;;;;;5004567;28;20101;-73
2021/09/26 10:00:49;;;;;;;1242.55;999.90;;;;;;;;;;5007035;28;20078;-74
2021/09/26 10:03:34;;;;;;;1245.65;999.90;;;;;;;;;;5005078;28;20057;-74
2021/09/26 10:06:00;;;;;;;1241.72;999.90;;;;;;;;;;5009128;28;20287;-74
2021/09/26 10:08:35;;;;;;;1240.75;999.90;;;;;;;;;;5007720;28;20290;-74
2021/09/26 10:11:09;;;;;;;1239.45;999.90;;;;;;;;;;5008273;28;20022;-74
2021/09/26 10:13:38;;;;;;;1236.93;999.90;;;;;;;;;;5008114;28;20227;-75
2021/09/26 10:16:06;;;;;;;1241.40;999.90;;;;;;;;;;5000273;28;20029;-72
2021/09/26 10:18:32;;;;;;;1240.88;999.90;;;;;;;;;;5005864;28;20057;-74
2021/09/26 10:20:59;;;;;;;1241.88;999.90;;;;;;;;;;5010027;28;20493;-74
2021/09/26 10:23:25;;;;;;;1241.63;999.90;;;;;;;;;;5005838;28;20038;-76
2021/09/26 10:25:52;;;;;;;1241.40;999.90;;;;;;;;;;5010376;28;20065;-76
2021/09/26 10:28:18;;;;;;;1247.60;999.90;;;;;;;;;;5010943;28;20104;-75
2021/09/26 10:30:45;;;;;;;1253.93;999.90;;;;;;;;;;5008295;28;20033;-76
2021/09/26 10:33:12;;;;;;;1251.95;999.90;;;;;;;;;;5009157;28;20026;-75
2021/09/26 10:35:39;;;;;;;1254.85;999.90;;;;;;;;;;5011732;28;20427;-74
2021/09/26 10:38:10;;;;;;;1257.70;999.90;;;;;;;;;;5008658;28;20389;-75
2021/09/26 10:40:37;;;;;;;1259.65;999.90;;;;;;;;;;5011291;28;20025;-76
2021/09/26 10:43:20;;;;;;;1265.57;999.90;;;;;;;;;;5010002;28;20034;-75
2021/09/26 10:46:15;;;;;;;1266.80;999.90;;;;;;;;;;5010464;28;20714;-74
2021/09/26 10:48:57;;;;;;;1272.10;999.90;;;;;;;;;;4996455;28;20034;-76
2021/09/26 10:51:41;;;;;;;1270.63;999.90;;;;;;;;;;5009191;28;20128;-75
2021/09/26 10:54:23;;;;;;;1281.38;999.90;;;;;;;;;;5005506;28;20053;-77
2021/09/26 10:56:52;;;;;;;1279.95;999.90;;;;;;;;;;5004115;28;20026;-76
2021/09/26 10:59:19;;;;;;;1278.28;999.90;;;;;;;;;;5011988;28;20040;-74
2021/09/26 11:01:45;;;;;;;1281.20;999.90;;;;;;;;;;5004608;28;20469;-75
2021/09/26 11:04:11;;;;;;;1278.43;999.90;;;;;;;;;;5005071;28;20533;-72
2021/09/26 11:06:38;;;;;;;1274.60;999.90;;;;;;;;;;5007821;28;20038;-74
2021/09/26 11:09:06;;;;;;;1276.05;999.90;;;;;;;;;;5008640;28;20064;-74
2021/09/26 11:11:38;;;;;;;1272.05;999.90;;;;;;;;;;5008238;28;20130;-76
2021/09/26 11:14:05;;;;;;;1272.85;999.90;;;;;;;;;;5006843;28;20030;-74
2021/09/26 11:16:50;;;;;;;1274.93;999.90;;;;;;;;;;5009892;28;20465;-74
2021/09/26 11:19:17;;;;;;;1274.88;999.90;;;;;;;;;;5007827;28;20029;-74
2021/09/26 11:21:43;;;;;;;1282.70;999.90;;;;;;;;;;5008444;28;20481;-73
2021/09/26 11:24:26;;;;;;;1280.38;999.90;;;;;;;;;;5006393;28;20121;-74
2021/09/26 11:26:58;;;;;;;1281.57;999.90;;;;;;;;;;5005826;28;20034;-73
2021/09/26 11:29:25;;;;;;;1282.75;999.90;;;;;;;;;;5007705;28;20485;-75
2021/09/26 11:31:51;;;;;;;1275.72;999.90;;;;;;;;;;5006816;28;20030;-71
2021/09/26 11:34:36;;;;;;;1280.93;999.90;;;;;;;;;;5009448;28;20026;-72
2021/09/26 11:37:03;;;;;;;1283.32;999.90;;;;;;;;;;5002467;28;20022;-73
2021/09/26 11:39:29;;;;;;;1285.80;999.90;;;;;;;;;;5006262;28;20056;-74
2021/09/26 11:41:55;;;;;;;1295.68;999.90;;;;;;;;;;5006710;28;20029;-73
2021/09/26 11:44:21;;;;;;;1296.95;999.90;;;;;;;;;;5006122;28;20036;-73
2021/09/26 11:46:51;;;;;;;1295.40;999.90;;;;;;;;;;5006166;28;20056;-74
2021/09/26 11:49:18;;;;;;;1292.07;999.90;;;;;;;;;;5008016;28;20028;-73
2021/09/26 11:51:44;;;;;;;1294.10;999.90;;;;;;;;;;5007716;28;20033;-74
2021/09/26 11:54:10;;;;;;;1295.30;999.90;;;;;;;;;;5006906;28;20034;-73
2021/09/26 11:56:37;;;;;;;1293.05;999.90;;;;;;;;;;5005944;28;20040;-76
2021/09/26 11:59:14;;;;;;;1297.35;999.90;;;;;;;;;;5007532;28;20498;-73
2021/09/26 12:01:42;;;;;;;1295.00;999.90;;;;;;;;;;5005152;28;20026;-73
2021/09/26 12:04:09;;;;;;;1301.10;999.90;;;;;;;;;;5005717;28;20026;-74
2021/09/26 12:06:35;;;;;;;1289.95;999.90;;;;;;;;;;5005774;28;20034;-73
2021/09/26 12:09:01;;;;;;;1289.20;999.90;;;;;;;;;;5005602;28;20030;-73
2021/09/26 12:11:27;;;;;;;1300.28;999.90;;;;;;;;;;5006065;28;20041;-73
2021/09/26 12:13:55;;;;;;;1297.57;999.90;;;;;;;;;;5005883;28;20029;-74
2021/09/26 12:16:21;;;;;;;1302.05;999.90;;;;;;;;;;5007500;28;20095;-73
2021/09/26 12:18:54;;;;;;;1304.07;999.90;;;;;;;;;;5007084;28;20026;-73
2021/09/26 12:21:20;;;;;;;1304.07;999.90;;;;;;;;;;5007166;28;20037;-73
2021/09/26 12:23:52;;;;;;;1307.18;999.90;;;;;;;;;;5036364;28;20083;-74
2021/09/26 12:26:20;;;;;;;1303.88;999.90;;;;;;;;;;5007219;28;20030;-73
2021/09/26 12:28:46;;;;;;;1306.65;999.90;;;;;;;;;;5006739;28;20535;-74
2021/09/26 12:31:11;;;;;;;1314.00;999.90;;;;;;;;;;5006836;28;20026;-74
2021/09/26 12:33:42;;;;;;;1309.38;999.90;;;;;;;;;;5003102;28;20034;-74
2021/09/26 12:36:11;;;;;;;1313.20;999.90;;;;;;;;;;5005196;28;20017;-74
2021/09/26 12:38:42;;;;;;;1304.72;999.90;;;;;;;;;;5006295;28;20041;-76
2021/09/26 12:41:13;;;;;;;1307.95;999.90;;;;;;;;;;5012464;28;20075;-74
2021/09/26 12:43:50;;;;;;;1306.57;999.90;;;;;;;;;;5006670;28;20486;-74
2021/09/26 12:46:17;;;;;;;1303.50;999.90;;;;;;;;;;5006978;28;20533;-74
2021/09/26 12:48:47;;;;;;;1302.95;999.90;;;;;;;;;;5006710;28;20033;-75
2021/09/26 12:51:22;;;;;;;1294.70;999.90;;;;;;;;;;5005738;28;20026;-76
2021/09/26 12:53:49;;;;;;;1298.57;999.90;;;;;;;;;;5005748;28;20091;-75
2021/09/26 12:56:16;;;;;;;1305.20;999.90;;;;;;;;;;5005364;28;20040;-74
2021/09/26 12:58:43;;;;;;;1302.40;999.90;;;;;;;;;;5005849;28;20041;-76
2021/09/26 13:01:12;;;;;;;1306.68;999.90;;;;;;;;;;5007047;28;20125;-77
2021/09/26 13:03:50;;;;;;;1309.18;999.90;;;;;;;;;;5003089;28;20518;-76
2021/09/26 13:06:30;;;;;;;1305.97;999.90;;;;;;;;;;5006795;28;20095;-76
2021/09/26 13:08:56;;;;;;;1304.93;999.90;;;;;;;;;;5005327;28;20030;-78
2021/09/26 13:11:22;;;;;;;1313.00;999.90;;;;;;;;;;5006910;28;20041;-76
2021/09/26 13:14:07;;;;;;;1313.57;999.90;;;;;;;;;;5005932;28;20042;-76
2021/09/26 13:16:41;;;;;;;1313.28;999.90;;;;;;;;;;5007201;28;20042;-76
2021/09/26 13:19:39;;;;;;;1315.45;999.90;;;;;;;;;;5000718;28;20032;-77
2021/09/26 13:22:11;;;;;;;1309.05;999.90;;;;;;;;;;4966399;28;20121;-77
2021/09/26 13:24:40;;;;;;;1309.18;999.90;;;;;;;;;;5008390;28;20029;-77
2021/09/26 13:27:37;;;;;;;1304.43;999.90;;;;;;;;;;5009647;28;20018;-77
2021/09/26 13:30:29;;;;;;;1301.85;999.90;;;;;;;;;;5007255;28;21683;-78
2021/09/26 13:32:55;;;;;;;1303.72;999.90;;;;;;;;;;4998567;28;20125;-77
2021/09/26 13:35:23;;;;;;;1312.28;999.90;;;;;;;;;;5009140;28;20219;-77
2021/09/26 13:38:27;;;;;;;1312.63;999.90;;;;;;;;;;5009113;28;20565;-77
2021/09/26 13:41:08;;;;;;;1313.30;999.90;;;;;;;;;;4929418;29;20513;-75
2021/09/26 13:43:36;;;;;;;1318.18;999.90;;;;;;;;;;4913939;29;20467;-76
2021/09/26 13:46:03;;;;;;;1315.72;999.90;;;;;;;;;;4975844;28;20157;-75
2021/09/26 13:48:29;;;;;;;1310.68;999.90;;;;;;;;;;5009282;28;20088;-76
2021/09/26 13:50:55;;;;;;;1314.72;999.90;;;;;;;;;;5007988;28;20426;-76